sensor_id;sensor_type;location;lat;lon;timestamp;P1;durP1;ratioP1;P2;durP2;ratioP2
25525;SDS011;13424;48.424;11.258;2023-07-22T00:01:11;6.75;;;4.30;;
25525;SDS011;13424;48.424;11.258;2023-07-22T00:03:37;6.00;;;4.50;;
25525;SDS011;13424;48.424;11.258;2023-07-22T00:06:08;12.43;;;5.45;;
25525;SDS011;13424;48.424;11.258;2023-07-22T00:08:35;12.13;;;5.40;;
25525;SDS011;13424;48.424;11.258;2023-07-22T00:11:06;10.18;;;4.00;;
25525;SDS011;13424;48.424;11.258;2023-07-22T00:13:33;7.13;;;5.03;;
25525;SDS011;13424;48.424;11.258;2023-07-22T00:16:00;6.90;;;4.63;;
25525;SDS011;13424;48.424;11.258;2023-07-22T00:18:29;5.25;;;4.20;;
25525;SDS011;13424;48.424;11.258;2023-07-22T00:20:56;5.43;;;3.42;;
25525;SDS011;13424;48.424;11.258;2023-07-22T00:23:22;4.82;;;3.05;;
25525;SDS011;13424;48.424;11.258;2023-07-22T00:25:49;5.18;;;3.67;;
25525;SDS011;13424;48.424;11.258;2023-07-22T00:28:15;6.10;;;3.55;;
25525;SDS011;13424;48.424;11.258;2023-07-22T00:30:41;3.88;;;3.40;;
25525;SDS011;13424;48.424;11.258;2023-07-22T00:33:08;4.43;;;3.95;;
25525;SDS011;13424;48.424;11.258;2023-07-22T00:38:59;5.78;;;4.20;;
25525;SDS011;13424;48.424;11.258;2023-07-22T00:41:27;4.57;;;3.88;;
25525;SDS011;13424;48.424;11.258;2023-07-22T00:43:54;5.45;;;3.42;;
25525;SDS011;13424;48.424;11.258;2023-07-22T00:46:29;6.07;;;3.85;;
25525;SDS011;13424;48.424;11.258;2023-07-22T00:48:55;5.65;;;3.53;;
25525;SDS011;13424;48.424;11.258;2023-07-22T00:51:21;7.60;;;3.83;;
25525;SDS011;13424;48.424;11.258;2023-07-22T00:53:47;3.88;;;3.10;;
25525;SDS011;13424;48.424;11.258;2023-07-22T00:56:14;5.30;;;4.18;;
25525;SDS011;13424;48.424;11.258;2023-07-22T00:58:40;5.57;;;3.17;;
25525;SDS011;13424;48.424;11.258;2023-07-22T01:01:06;5.28;;;3.75;;
25525;SDS011;13424;48.424;11.258;2023-07-22T01:03:32;5.65;;;3.20;;
25525;SDS011;13424;48.424;11.258;2023-07-22T01:05:58;5.20;;;3.25;;
25525;SDS011;13424;48.424;11.258;2023-07-22T01:12:19;4.30;;;3.50;;
25525;SDS011;13424;48.424;11.258;2023-07-22T01:14:45;5.03;;;3.30;;
25525;SDS011;13424;48.424;11.258;2023-07-22T01:17:11;4.18;;;2.78;;
25525;SDS011;13424;48.424;11.258;2023-07-22T01:19:38;4.43;;;3.50;;
25525;SDS011;13424;48.424;11.258;2023-07-22T01:22:05;4.97;;;3.45;;
25525;SDS011;13424;48.424;11.258;2023-07-22T01:24:36;4.70;;;3.35;;
25525;SDS011;13424;48.424;11.258;2023-07-22T01:27:05;4.50;;;3.25;;
25525;SDS011;13424;48.424;11.258;2023-07-22T01:29:33;4.43;;;3.72;;
25525;SDS011;13424;48.424;11.258;2023-07-22T01:32:00;9.20;;;3.63;;
25525;SDS011;13424;48.424;11.258;2023-07-22T01:34:26;4.30;;;3.08;;
25525;SDS011;13424;48.424;11.258;2023-07-22T01:36:52;3.72;;;3.40;;
25525;SDS011;13424;48.424;11.258;2023-07-22T01:39:19;4.72;;;3.00;;
25525;SDS011;13424;48.424;11.258;2023-07-22T01:45:01;3.58;;;3.28;;
25525;SDS011;13424;48.424;11.258;2023-07-22T01:47:27;4.65;;;2.83;;
25525;SDS011;13424;48.424;11.258;2023-07-22T01:49:53;6.13;;;3.80;;
25525;SDS011;13424;48.424;11.258;2023-07-22T01:52:19;6.47;;;3.78;;
25525;SDS011;13424;48.424;11.258;2023-07-22T01:54:45;4.78;;;3.60;;
25525;SDS011;13424;48.424;11.258;2023-07-22T01:57:11;5.63;;;3.50;;
25525;SDS011;13424;48.424;11.258;2023-07-22T01:59:37;6.40;;;3.65;;
25525;SDS011;13424;48.424;11.258;2023-07-22T02:02:03;3.70;;;3.30;;
25525;SDS011;13424;48.424;11.258;2023-07-22T02:04:39;9.90;;;4.53;;
25525;SDS011;13424;48.424;11.258;2023-07-22T02:07:05;4.75;;;4.07;;
25525;SDS011;13424;48.424;11.258;2023-07-22T02:09:34;5.53;;;3.63;;
25525;SDS011;13424;48.424;11.258;2023-07-22T02:12:00;5.45;;;3.90;;
25525;SDS011;13424;48.424;11.258;2023-07-22T02:14:27;4.18;;;3.58;;
25525;SDS011;13424;48.424;11.258;2023-07-22T02:16:52;7.10;;;4.40;;
25525;SDS011;13424;48.424;11.258;2023-07-22T02:19:18;6.40;;;4.38;;
25525;SDS011;13424;48.424;11.258;2023-07-22T02:21:44;5.35;;;4.38;;
25525;SDS011;13424;48.424;11.258;2023-07-22T02:24:10;5.05;;;3.83;;
25525;SDS011;13424;48.424;11.258;2023-07-22T02:26:38;5.25;;;4.72;;
25525;SDS011;13424;48.424;11.258;2023-07-22T02:29:04;7.35;;;4.88;;
25525;SDS011;13424;48.424;11.258;2023-07-22T02:31:30;8.75;;;4.95;;
25525;SDS011;13424;48.424;11.258;2023-07-22T02:33:56;7.88;;;4.90;;
25525;SDS011;13424;48.424;11.258;2023-07-22T02:36:22;7.60;;;4.28;;
25525;SDS011;13424;48.424;11.258;2023-07-22T02:38:49;6.25;;;4.65;;
25525;SDS011;13424;48.424;11.258;2023-07-22T02:41:14;5.57;;;4.50;;
25525;SDS011;13424;48.424;11.258;2023-07-22T02:43:41;5.43;;;4.72;;
25525;SDS011;13424;48.424;11.258;2023-07-22T02:46:07;9.65;;;4.80;;
25525;SDS011;13424;48.424;11.258;2023-07-22T02:48:34;7.32;;;4.97;;
25525;SDS011;13424;48.424;11.258;2023-07-22T02:51:07;8.48;;;5.15;;
25525;SDS011;13424;48.424;11.258;2023-07-22T02:53:35;6.95;;;4.38;;
25525;SDS011;13424;48.424;11.258;2023-07-22T02:56:07;5.57;;;4.75;;
25525;SDS011;13424;48.424;11.258;2023-07-22T02:58:33;5.38;;;4.85;;
25525;SDS011;13424;48.424;11.258;2023-07-22T03:01:00;8.77;;;5.55;;
25525;SDS011;13424;48.424;11.258;2023-07-22T03:03:28;7.90;;;6.55;;
25525;SDS011;13424;48.424;11.258;2023-07-22T03:05:54;8.32;;;6.45;;
25525;SDS011;13424;48.424;11.258;2023-07-22T03:08:20;10.98;;;6.63;;
25525;SDS011;13424;48.424;11.258;2023-07-22T03:10:45;9.65;;;5.78;;
25525;SDS011;13424;48.424;11.258;2023-07-22T03:13:14;7.80;;;5.97;;
25525;SDS011;13424;48.424;11.258;2023-07-22T03:15:41;10.02;;;6.57;;
25525;SDS011;13424;48.424;11.258;2023-07-22T03:18:07;8.52;;;5.65;;
25525;SDS011;13424;48.424;11.258;2023-07-22T03:20:44;7.88;;;5.72;;
25525;SDS011;13424;48.424;11.258;2023-07-22T03:23:10;12.35;;;6.95;;
25525;SDS011;13424;48.424;11.258;2023-07-22T03:25:36;6.95;;;5.60;;
25525;SDS011;13424;48.424;11.258;2023-07-22T03:28:04;8.65;;;5.43;;
25525;SDS011;13424;48.424;11.258;2023-07-22T03:30:32;7.22;;;5.55;;
25525;SDS011;13424;48.424;11.258;2023-07-22T03:32:59;9.15;;;6.10;;
25525;SDS011;13424;48.424;11.258;2023-07-22T03:35:28;9.50;;;6.00;;
25525;SDS011;13424;48.424;11.258;2023-07-22T03:37:54;9.77;;;6.53;;
25525;SDS011;13424;48.424;11.258;2023-07-22T03:40:20;7.10;;;5.85;;
25525;SDS011;13424;48.424;11.258;2023-07-22T03:42:52;11.68;;;6.88;;
25525;SDS011;13424;48.424;11.258;2023-07-22T03:45:21;10.57;;;6.80;;
25525;SDS011;13424;48.424;11.258;2023-07-22T03:47:50;7.78;;;6.95;;
25525;SDS011;13424;48.424;11.258;2023-07-22T03:50:24;9.57;;;7.15;;
25525;SDS011;13424;48.424;11.258;2023-07-22T03:52:51;13.57;;;8.43;;
25525;SDS011;13424;48.424;11.258;2023-07-22T03:55:17;10.18;;;8.57;;
25525;SDS011;13424;48.424;11.258;2023-07-22T03:57:45;12.65;;;10.30;;
25525;SDS011;13424;48.424;11.258;2023-07-22T04:00:11;15.18;;;11.50;;
25525;SDS011;13424;48.424;11.258;2023-07-22T04:02:38;20.95;;;11.85;;
25525;SDS011;13424;48.424;11.258;2023-07-22T04:05:10;11.57;;;9.13;;
25525;SDS011;13424;48.424;11.258;2023-07-22T04:07:36;11.07;;;9.25;;
25525;SDS011;13424;48.424;11.258;2023-07-22T04:10:02;15.27;;;10.65;;
25525;SDS011;13424;48.424;11.258;2023-07-22T04:12:29;15.60;;;10.70;;
25525;SDS011;13424;48.424;11.258;2023-07-22T04:14:55;12.02;;;9.85;;
25525;SDS011;13424;48.424;11.258;2023-07-22T04:17:24;14.57;;;10.20;;
25525;SDS011;13424;48.424;11.258;2023-07-22T04:19:51;10.60;;;8.50;;
25525;SDS011;13424;48.424;11.258;2023-07-22T04:22:27;10.38;;;8.38;;
25525;SDS011;13424;48.424;11.258;2023-07-22T04:24:54;16.15;;;9.90;;
25525;SDS011;13424;48.424;11.258;2023-07-22T04:27:20;16.48;;;11.98;;
25525;SDS011;13424;48.424;11.258;2023-07-22T04:29:45;12.50;;;10.85;;
25525;SDS011;13424;48.424;11.258;2023-07-22T04:32:11;20.27;;;11.40;;
25525;SDS011;13424;48.424;11.258;2023-07-22T04:34:38;14.18;;;11.43;;
25525;SDS011;13424;48.424;11.258;2023-07-22T04:37:05;15.02;;;11.50;;
25525;SDS011;13424;48.424;11.258;2023-07-22T04:39:31;17.70;;;12.45;;
25525;SDS011;13424;48.424;11.258;2023-07-22T04:41:57;14.93;;;11.63;;
25525;SDS011;13424;48.424;11.258;2023-07-22T04:44:23;14.05;;;10.80;;
25525;SDS011;13424;48.424;11.258;2023-07-22T04:46:49;13.70;;;10.75;;
25525;SDS011;13424;48.424;11.258;2023-07-22T04:49:15;14.68;;;9.80;;
25525;SDS011;13424;48.424;11.258;2023-07-22T04:51:44;13.77;;;9.63;;
25525;SDS011;13424;48.424;11.258;2023-07-22T04:54:11;14.50;;;9.52;;
25525;SDS011;13424;48.424;11.258;2023-07-22T04:56:37;13.35;;;9.20;;
25525;SDS011;13424;48.424;11.258;2023-07-22T05:03:29;8.43;;;7.53;;
25525;SDS011;13424;48.424;11.258;2023-07-22T05:05:55;11.13;;;7.47;;
25525;SDS011;13424;48.424;11.258;2023-07-22T05:08:23;12.82;;;7.30;;
25525;SDS011;13424;48.424;11.258;2023-07-22T05:10:49;8.90;;;7.20;;
25525;SDS011;13424;48.424;11.258;2023-07-22T05:13:15;10.30;;;6.32;;
25525;SDS011;13424;48.424;11.258;2023-07-22T05:15:41;8.82;;;6.28;;
25525;SDS011;13424;48.424;11.258;2023-07-22T05:18:07;7.90;;;6.35;;
25525;SDS011;13424;48.424;11.258;2023-07-22T05:20:33;10.77;;;6.70;;
25525;SDS011;13424;48.424;11.258;2023-07-22T05:22:59;11.20;;;6.68;;
25525;SDS011;13424;48.424;11.258;2023-07-22T05:25:25;6.97;;;5.35;;
25525;SDS011;13424;48.424;11.258;2023-07-22T05:27:51;10.63;;;6.13;;
25525;SDS011;13424;48.424;11.258;2023-07-22T05:30:20;6.93;;;5.88;;
25525;SDS011;13424;48.424;11.258;2023-07-22T05:32:46;8.95;;;6.35;;
25525;SDS011;13424;48.424;11.258;2023-07-22T05:35:12;7.45;;;5.63;;
25525;SDS011;13424;48.424;11.258;2023-07-22T05:37:38;6.68;;;5.32;;
25525;SDS011;13424;48.424;11.258;2023-07-22T05:40:05;9.30;;;5.03;;
25525;SDS011;13424;48.424;11.258;2023-07-22T05:42:32;6.90;;;6.10;;
25525;SDS011;13424;48.424;11.258;2023-07-22T05:44:58;8.00;;;5.13;;
25525;SDS011;13424;48.424;11.258;2023-07-22T05:47:31;9.90;;;4.47;;
25525;SDS011;13424;48.424;11.258;2023-07-22T05:49:57;5.55;;;4.72;;
25525;SDS011;13424;48.424;11.258;2023-07-22T05:52:23;8.82;;;5.78;;
25525;SDS011;13424;48.424;11.258;2023-07-22T05:54:49;9.10;;;4.85;;
25525;SDS011;13424;48.424;11.258;2023-07-22T05:57:15;6.63;;;4.78;;
25525;SDS011;13424;48.424;11.258;2023-07-22T05:59:41;7.78;;;4.45;;
25525;SDS011;13424;48.424;11.258;2023-07-22T06:05:26;6.85;;;4.88;;
25525;SDS011;13424;48.424;11.258;2023-07-22T06:07:52;6.97;;;5.05;;
25525;SDS011;13424;48.424;11.258;2023-07-22T06:10:19;6.07;;;4.38;;
25525;SDS011;13424;48.424;11.258;2023-07-22T06:12:45;5.05;;;4.22;;
25525;SDS011;13424;48.424;11.258;2023-07-22T06:15:12;7.63;;;4.97;;
25525;SDS011;13424;48.424;11.258;2023-07-22T06:17:38;5.20;;;4.63;;
25525;SDS011;13424;48.424;11.258;2023-07-22T06:20:04;6.78;;;4.80;;
25525;SDS011;13424;48.424;11.258;2023-07-22T06:22:31;4.60;;;4.13;;
25525;SDS011;13424;48.424;11.258;2023-07-22T06:24:57;6.60;;;4.00;;
25525;SDS011;13424;48.424;11.258;2023-07-22T06:27:23;9.77;;;4.28;;
25525;SDS011;13424;48.424;11.258;2023-07-22T06:29:49;6.47;;;4.32;;
25525;SDS011;13424;48.424;11.258;2023-07-22T06:32:14;6.15;;;4.90;;
25525;SDS011;13424;48.424;11.258;2023-07-22T06:37:59;8.88;;;4.72;;
25525;SDS011;13424;48.424;11.258;2023-07-22T06:40:25;5.68;;;4.90;;
25525;SDS011;13424;48.424;11.258;2023-07-22T06:42:51;9.02;;;4.30;;
25525;SDS011;13424;48.424;11.258;2023-07-22T06:45:26;6.18;;;4.68;;
25525;SDS011;13424;48.424;11.258;2023-07-22T06:47:52;7.90;;;4.82;;
25525;SDS011;13424;48.424;11.258;2023-07-22T06:50:18;7.88;;;5.05;;
25525;SDS011;13424;48.424;11.258;2023-07-22T06:52:44;6.20;;;4.13;;
25525;SDS011;13424;48.424;11.258;2023-07-22T06:55:16;5.35;;;3.85;;
25525;SDS011;13424;48.424;11.258;2023-07-22T06:57:42;7.32;;;4.45;;
25525;SDS011;13424;48.424;11.258;2023-07-22T07:00:09;6.25;;;4.75;;
25525;SDS011;13424;48.424;11.258;2023-07-22T07:02:35;7.13;;;4.72;;
25525;SDS011;13424;48.424;11.258;2023-07-22T07:05:02;6.25;;;5.22;;
25525;SDS011;13424;48.424;11.258;2023-07-22T07:07:28;4.90;;;4.50;;
25525;SDS011;13424;48.424;11.258;2023-07-22T07:14:20;9.77;;;3.80;;
25525;SDS011;13424;48.424;11.258;2023-07-22T07:16:46;6.72;;;4.18;;
25525;SDS011;13424;48.424;11.258;2023-07-22T07:19:12;9.15;;;4.22;;
25525;SDS011;13424;48.424;11.258;2023-07-22T07:21:38;6.13;;;3.97;;
25525;SDS011;13424;48.424;11.258;2023-07-22T07:24:10;7.47;;;3.95;;
25525;SDS011;13424;48.424;11.258;2023-07-22T07:26:36;5.57;;;3.70;;
25525;SDS011;13424;48.424;11.258;2023-07-22T07:29:02;6.28;;;4.25;;
25525;SDS011;13424;48.424;11.258;2023-07-22T07:31:28;4.80;;;3.55;;
25525;SDS011;13424;48.424;11.258;2023-07-22T07:33:54;4.13;;;3.63;;
25525;SDS011;13424;48.424;11.258;2023-07-22T07:36:20;5.63;;;3.20;;
25525;SDS011;13424;48.424;11.258;2023-07-22T07:38:46;6.63;;;3.92;;
25525;SDS011;13424;48.424;11.258;2023-07-22T07:41:12;4.82;;;3.55;;
25525;SDS011;13424;48.424;11.258;2023-07-22T07:43:39;5.53;;;3.20;;
25525;SDS011;13424;48.424;11.258;2023-07-22T07:48:48;5.28;;;3.50;;
25525;SDS011;13424;48.424;11.258;2023-07-22T07:51:44;3.53;;;2.83;;
25525;SDS011;13424;48.424;11.258;2023-07-22T07:54:10;6.05;;;3.25;;
25525;SDS011;13424;48.424;11.258;2023-07-22T07:56:35;5.70;;;3.08;;
25525;SDS011;13424;48.424;11.258;2023-07-22T07:59:01;5.15;;;2.78;;
25525;SDS011;13424;48.424;11.258;2023-07-22T08:05:18;5.97;;;3.45;;
25525;SDS011;13424;48.424;11.258;2023-07-22T08:07:44;4.28;;;2.72;;
25525;SDS011;13424;48.424;11.258;2023-07-22T08:10:10;5.25;;;3.03;;
25525;SDS011;13424;48.424;11.258;2023-07-22T08:12:36;3.53;;;2.95;;
25525;SDS011;13424;48.424;11.258;2023-07-22T08:15:28;4.20;;;2.78;;
25525;SDS011;13424;48.424;11.258;2023-07-22T08:17:54;5.15;;;2.72;;
25525;SDS011;13424;48.424;11.258;2023-07-22T08:20:19;4.30;;;3.05;;
25525;SDS011;13424;48.424;11.258;2023-07-22T08:22:46;4.28;;;2.40;;
25525;SDS011;13424;48.424;11.258;2023-07-22T08:25:12;3.10;;;2.65;;
25525;SDS011;13424;48.424;11.258;2023-07-22T08:27:38;4.90;;;3.03;;
25525;SDS011;13424;48.424;11.258;2023-07-22T08:30:04;3.72;;;3.15;;
25525;SDS011;13424;48.424;11.258;2023-07-22T08:32:31;4.60;;;2.83;;
25525;SDS011;13424;48.424;11.258;2023-07-22T08:34:56;4.35;;;2.72;;
25525;SDS011;13424;48.424;11.258;2023-07-22T08:37:30;4.00;;;3.25;;
25525;SDS011;13424;48.424;11.258;2023-07-22T08:39:57;5.45;;;2.38;;
25525;SDS011;13424;48.424;11.258;2023-07-22T08:42:23;5.32;;;2.50;;
25525;SDS011;13424;48.424;11.258;2023-07-22T08:44:51;4.10;;;2.75;;
25525;SDS011;13424;48.424;11.258;2023-07-22T08:47:26;5.43;;;2.70;;
25525;SDS011;13424;48.424;11.258;2023-07-22T08:49:57;4.47;;;2.78;;
25525;SDS011;13424;48.424;11.258;2023-07-22T08:52:26;6.60;;;2.50;;
25525;SDS011;13424;48.424;11.258;2023-07-22T08:54:52;2.83;;;2.42;;
25525;SDS011;13424;48.424;11.258;2023-07-22T08:57:20;3.72;;;2.63;;
25525;SDS011;13424;48.424;11.258;2023-07-22T08:59:46;7.13;;;2.53;;
25525;SDS011;13424;48.424;11.258;2023-07-22T09:02:13;4.70;;;2.72;;
25525;SDS011;13424;48.424;11.258;2023-07-22T09:04:39;3.78;;;2.65;;
25525;SDS011;13424;48.424;11.258;2023-07-22T09:07:09;3.03;;;2.10;;
25525;SDS011;13424;48.424;11.258;2023-07-22T09:09:37;3.75;;;2.33;;
25525;SDS011;13424;48.424;11.258;2023-07-22T09:12:03;2.75;;;2.50;;
25525;SDS011;13424;48.424;11.258;2023-07-22T09:14:31;3.95;;;2.58;;
25525;SDS011;13424;48.424;11.258;2023-07-22T09:17:14;4.10;;;2.33;;
25525;SDS011;13424;48.424;11.258;2023-07-22T09:19:40;2.67;;;2.10;;
25525;SDS011;13424;48.424;11.258;2023-07-22T09:22:07;3.30;;;2.40;;
25525;SDS011;13424;48.424;11.258;2023-07-22T09:24:33;1.92;;;1.80;;
25525;SDS011;13424;48.424;11.258;2023-07-22T09:26:59;4.47;;;2.67;;
25525;SDS011;13424;48.424;11.258;2023-07-22T09:29:36;4.15;;;2.30;;
25525;SDS011;13424;48.424;11.258;2023-07-22T09:32:05;6.72;;;2.80;;
25525;SDS011;13424;48.424;11.258;2023-07-22T09:34:32;3.42;;;2.58;;
25525;SDS011;13424;48.424;11.258;2023-07-22T09:36:59;3.78;;;2.25;;
25525;SDS011;13424;48.424;11.258;2023-07-22T09:39:29;2.42;;;1.98;;
25525;SDS011;13424;48.424;11.258;2023-07-22T09:41:55;3.35;;;2.03;;
25525;SDS011;13424;48.424;11.258;2023-07-22T09:44:29;2.67;;;2.13;;
25525;SDS011;13424;48.424;11.258;2023-07-22T09:46:57;2.45;;;2.00;;
25525;SDS011;13424;48.424;11.258;2023-07-22T09:49:23;3.17;;;2.03;;
25525;SDS011;13424;48.424;11.258;2023-07-22T09:51:50;3.55;;;2.05;;
25525;SDS011;13424;48.424;11.258;2023-07-22T09:54:17;3.13;;;2.13;;
25525;SDS011;13424;48.424;11.258;2023-07-22T09:56:46;2.47;;;1.92;;
25525;SDS011;13424;48.424;11.258;2023-07-22T09:59:17;18.77;;;13.43;;
25525;SDS011;13424;48.424;11.258;2023-07-22T10:01:45;6.93;;;3.08;;
25525;SDS011;13424;48.424;11.258;2023-07-22T10:04:15;6.22;;;2.33;;
25525;SDS011;13424;48.424;11.258;2023-07-22T10:06:43;9.57;;;6.93;;
25525;SDS011;13424;48.424;11.258;2023-07-22T10:09:10;2.75;;;2.28;;
25525;SDS011;13424;48.424;11.258;2023-07-22T10:11:38;1.80;;;1.50;;
25525;SDS011;13424;48.424;11.258;2023-07-22T10:14:05;3.88;;;2.58;;
25525;SDS011;13424;48.424;11.258;2023-07-22T10:20:08;4.20;;;2.55;;
25525;SDS011;13424;48.424;11.258;2023-07-22T10:22:43;28.08;;;17.40;;
25525;SDS011;13424;48.424;11.258;2023-07-22T10:25:18;4.75;;;2.63;;
25525;SDS011;13424;48.424;11.258;2023-07-22T10:27:49;2.70;;;2.20;;
25525;SDS011;13424;48.424;11.258;2023-07-22T10:30:18;2.75;;;2.00;;
25525;SDS011;13424;48.424;11.258;2023-07-22T10:32:53;2.17;;;1.92;;
25525;SDS011;13424;48.424;11.258;2023-07-22T10:37:56;3.42;;;1.83;;
25525;SDS011;13424;48.424;11.258;2023-07-22T10:40:50;4.20;;;2.15;;
25525;SDS011;13424;48.424;11.258;2023-07-22T10:43:30;3.20;;;2.17;;
25525;SDS011;13424;48.424;11.258;2023-07-22T10:46:09;2.33;;;1.88;;
25525;SDS011;13424;48.424;11.258;2023-07-22T10:48:40;2.22;;;2.00;;
25525;SDS011;13424;48.424;11.258;2023-07-22T10:51:10;4.72;;;1.83;;
25525;SDS011;13424;48.424;11.258;2023-07-22T10:53:42;2.70;;;2.00;;
25525;SDS011;13424;48.424;11.258;2023-07-22T10:56:15;2.80;;;2.17;;
25525;SDS011;13424;48.424;11.258;2023-07-22T11:12:12;2.90;;;2.13;;
25525;SDS011;13424;48.424;11.258;2023-07-22T11:14:49;4.57;;;2.10;;
25525;SDS011;13424;48.424;11.258;2023-07-22T11:17:29;2.78;;;1.95;;
25525;SDS011;13424;48.424;11.258;2023-07-22T11:19:58;2.10;;;1.77;;
25525;SDS011;13424;48.424;11.258;2023-07-22T11:22:25;3.40;;;2.47;;
25525;SDS011;13424;48.424;11.258;2023-07-22T11:24:57;2.08;;;1.67;;
25525;SDS011;13424;48.424;11.258;2023-07-22T11:27:25;3.78;;;2.30;;
25525;SDS011;13424;48.424;11.258;2023-07-22T11:29:52;2.30;;;2.10;;
25525;SDS011;13424;48.424;11.258;2023-07-22T11:32:19;2.25;;;2.05;;
25525;SDS011;13424;48.424;11.258;2023-07-22T11:34:47;2.20;;;1.90;;
25525;SDS011;13424;48.424;11.258;2023-07-22T11:37:13;2.25;;;2.00;;
25525;SDS011;13424;48.424;11.258;2023-07-22T11:39:40;1.55;;;1.45;;
25525;SDS011;13424;48.424;11.258;2023-07-22T11:42:07;2.00;;;1.90;;
25525;SDS011;13424;48.424;11.258;2023-07-22T11:44:39;2.25;;;1.70;;
25525;SDS011;13424;48.424;11.258;2023-07-22T11:47:07;3.60;;;2.33;;
25525;SDS011;13424;48.424;11.258;2023-07-22T11:49:37;2.40;;;1.95;;
25525;SDS011;13424;48.424;11.258;2023-07-22T11:52:07;2.35;;;1.73;;
25525;SDS011;13424;48.424;11.258;2023-07-22T11:54:38;3.00;;;2.20;;
25525;SDS011;13424;48.424;11.258;2023-07-22T11:57:13;2.10;;;1.90;;
25525;SDS011;13424;48.424;11.258;2023-07-22T11:59:48;2.90;;;1.90;;
25525;SDS011;13424;48.424;11.258;2023-07-22T12:02:20;2.30;;;2.10;;
25525;SDS011;13424;48.424;11.258;2023-07-22T12:04:56;3.03;;;2.17;;
25525;SDS011;13424;48.424;11.258;2023-07-22T12:07:34;4.30;;;2.28;;
25525;SDS011;13424;48.424;11.258;2023-07-22T12:10:07;1.85;;;1.60;;
25525;SDS011;13424;48.424;11.258;2023-07-22T12:12:45;2.65;;;1.90;;
25525;SDS011;13424;48.424;11.258;2023-07-22T12:15:14;2.75;;;2.00;;
25525;SDS011;13424;48.424;11.258;2023-07-22T12:20:19;3.40;;;2.20;;
25525;SDS011;13424;48.424;11.258;2023-07-22T12:23:01;3.65;;;2.45;;
25525;SDS011;13424;48.424;11.258;2023-07-22T12:25:27;7.85;;;4.47;;
25525;SDS011;13424;48.424;11.258;2023-07-22T12:27:53;5.00;;;3.50;;
25525;SDS011;13424;48.424;11.258;2023-07-22T12:30:19;5.50;;;3.47;;
25525;SDS011;13424;48.424;11.258;2023-07-22T12:32:47;3.22;;;2.58;;
25525;SDS011;13424;48.424;11.258;2023-07-22T12:35:13;3.20;;;2.70;;
25525;SDS011;13424;48.424;11.258;2023-07-22T12:37:39;5.40;;;2.65;;
25525;SDS011;13424;48.424;11.258;2023-07-22T12:40:05;7.32;;;2.78;;
25525;SDS011;13424;48.424;11.258;2023-07-22T12:42:34;8.98;;;2.28;;
25525;SDS011;13424;48.424;11.258;2023-07-22T12:45:04;5.38;;;2.40;;
25525;SDS011;13424;48.424;11.258;2023-07-22T12:47:31;2.03;;;1.80;;
25525;SDS011;13424;48.424;11.258;2023-07-22T12:49:57;2.38;;;2.10;;
25525;SDS011;13424;48.424;11.258;2023-07-22T12:52:23;2.53;;;1.90;;
25525;SDS011;13424;48.424;11.258;2023-07-22T12:54:49;4.82;;;2.50;;
25525;SDS011;13424;48.424;11.258;2023-07-22T12:57:15;5.10;;;2.42;;
25525;SDS011;13424;48.424;11.258;2023-07-22T12:59:41;4.07;;;2.78;;
25525;SDS011;13424;48.424;11.258;2023-07-22T13:02:07;5.32;;;2.25;;
25525;SDS011;13424;48.424;11.258;2023-07-22T13:04:33;4.53;;;2.67;;
25525;SDS011;13424;48.424;11.258;2023-07-22T13:06:58;3.78;;;2.60;;
25525;SDS011;13424;48.424;11.258;2023-07-22T13:09:24;3.17;;;2.45;;
25525;SDS011;13424;48.424;11.258;2023-07-22T13:11:50;3.33;;;2.55;;
25525;SDS011;13424;48.424;11.258;2023-07-22T13:14:16;2.45;;;2.25;;
25525;SDS011;13424;48.424;11.258;2023-07-22T13:16:46;4.28;;;2.63;;
25525;SDS011;13424;48.424;11.258;2023-07-22T13:19:12;3.83;;;2.67;;
25525;SDS011;13424;48.424;11.258;2023-07-22T13:21:38;2.70;;;2.42;;
25525;SDS011;13424;48.424;11.258;2023-07-22T13:28:04;3.22;;;2.80;;
25525;SDS011;13424;48.424;11.258;2023-07-22T13:30:31;4.15;;;2.95;;
25525;SDS011;13424;48.424;11.258;2023-07-22T13:32:57;3.95;;;2.72;;
25525;SDS011;13424;48.424;11.258;2023-07-22T13:35:23;5.13;;;2.45;;
25525;SDS011;13424;48.424;11.258;2023-07-22T13:37:49;3.00;;;2.60;;
25525;SDS011;13424;48.424;11.258;2023-07-22T13:40:15;3.60;;;2.58;;
25525;SDS011;13424;48.424;11.258;2023-07-22T13:42:41;5.72;;;2.40;;
25525;SDS011;13424;48.424;11.258;2023-07-22T13:45:07;4.13;;;3.10;;
25525;SDS011;13424;48.424;11.258;2023-07-22T13:47:34;3.13;;;2.75;;
25525;SDS011;13424;48.424;11.258;2023-07-22T13:50:00;6.75;;;3.97;;
25525;SDS011;13424;48.424;11.258;2023-07-22T13:52:26;3.13;;;2.38;;
25525;SDS011;13424;48.424;11.258;2023-07-22T13:54:52;5.10;;;3.45;;
25525;SDS011;13424;48.424;11.258;2023-07-22T13:57:18;4.18;;;2.78;;
25525;SDS011;13424;48.424;11.258;2023-07-22T13:59:44;2.63;;;2.42;;
25525;SDS011;13424;48.424;11.258;2023-07-22T14:02:23;4.38;;;2.50;;
25525;SDS011;13424;48.424;11.258;2023-07-22T14:04:49;3.22;;;2.78;;
25525;SDS011;13424;48.424;11.258;2023-07-22T14:07:14;3.08;;;2.67;;
25525;SDS011;13424;48.424;11.258;2023-07-22T14:09:41;3.55;;;2.65;;
25525;SDS011;13424;48.424;11.258;2023-07-22T14:12:07;4.85;;;2.55;;
25525;SDS011;13424;48.424;11.258;2023-07-22T14:14:33;4.75;;;2.50;;
25525;SDS011;13424;48.424;11.258;2023-07-22T14:20:42;3.58;;;2.22;;
25525;SDS011;13424;48.424;11.258;2023-07-22T14:23:08;3.40;;;2.50;;
25525;SDS011;13424;48.424;11.258;2023-07-22T14:25:34;3.90;;;2.65;;
25525;SDS011;13424;48.424;11.258;2023-07-22T14:28:00;4.40;;;2.78;;
25525;SDS011;13424;48.424;11.258;2023-07-22T14:30:26;4.00;;;2.53;;
25525;SDS011;13424;48.424;11.258;2023-07-22T14:32:52;3.85;;;2.40;;
25525;SDS011;13424;48.424;11.258;2023-07-22T14:35:18;4.82;;;2.78;;
25525;SDS011;13424;48.424;11.258;2023-07-22T14:37:44;3.20;;;2.90;;
25525;SDS011;13424;48.424;11.258;2023-07-22T14:40:11;4.35;;;2.80;;
25525;SDS011;13424;48.424;11.258;2023-07-22T14:42:37;4.88;;;2.47;;
25525;SDS011;13424;48.424;11.258;2023-07-22T14:45:04;4.00;;;2.50;;
25525;SDS011;13424;48.424;11.258;2023-07-22T14:47:31;4.60;;;2.40;;
25525;SDS011;13424;48.424;11.258;2023-07-22T14:49:58;3.42;;;2.63;;
25525;SDS011;13424;48.424;11.258;2023-07-22T14:52:24;3.83;;;2.78;;
25525;SDS011;13424;48.424;11.258;2023-07-22T14:54:50;3.53;;;2.53;;
25525;SDS011;13424;48.424;11.258;2023-07-22T14:57:19;3.35;;;2.97;;
25525;SDS011;13424;48.424;11.258;2023-07-22T14:59:45;3.05;;;2.80;;
25525;SDS011;13424;48.424;11.258;2023-07-22T15:02:12;3.33;;;3.00;;
25525;SDS011;13424;48.424;11.258;2023-07-22T15:04:38;2.78;;;2.58;;
25525;SDS011;13424;48.424;11.258;2023-07-22T15:07:04;3.50;;;2.67;;
25525;SDS011;13424;48.424;11.258;2023-07-22T15:09:29;3.00;;;2.58;;
25525;SDS011;13424;48.424;11.258;2023-07-22T15:11:55;5.35;;;2.50;;
25525;SDS011;13424;48.424;11.258;2023-07-22T15:14:21;2.80;;;2.45;;
25525;SDS011;13424;48.424;11.258;2023-07-22T15:16:47;3.42;;;2.75;;
25525;SDS011;13424;48.424;11.258;2023-07-22T15:19:14;4.75;;;2.83;;
25525;SDS011;13424;48.424;11.258;2023-07-22T15:21:40;3.10;;;2.42;;
25525;SDS011;13424;48.424;11.258;2023-07-22T15:24:06;3.20;;;2.90;;
25525;SDS011;13424;48.424;11.258;2023-07-22T15:26:32;3.00;;;2.60;;
25525;SDS011;13424;48.424;11.258;2023-07-22T15:28:58;5.22;;;2.47;;
25525;SDS011;13424;48.424;11.258;2023-07-22T15:31:24;5.35;;;2.67;;
25525;SDS011;13424;48.424;11.258;2023-07-22T15:33:51;4.22;;;2.67;;
25525;SDS011;13424;48.424;11.258;2023-07-22T15:36:18;2.83;;;2.53;;
25525;SDS011;13424;48.424;11.258;2023-07-22T15:38:44;2.88;;;2.58;;